createdAt,value
2019-04-30T00:00:09.677Z,9.60
2019-04-30T00:01:07.319Z,9.60
2019-04-30T00:02:05.770Z,9.60
2019-04-30T00:03:06.806Z,9.60
2019-04-30T00:04:05.853Z,9.60
2019-04-30T00:05:05.694Z,9.60
2019-04-30T00:06:07.454Z,9.60
2019-04-30T00:07:05.777Z,9.60
2019-04-30T00:08:05.949Z,9.50
2019-04-30T00:09:09.625Z,9.50
2019-04-30T00:10:06.098Z,9.50
2019-04-30T00:11:05.712Z,9.50
2019-04-30T00:12:05.733Z,9.50
2019-04-30T00:13:06.125Z,9.50
2019-04-30T00:14:05.769Z,9.50
2019-04-30T00:15:06.180Z,9.50
2019-04-30T00:16:05.733Z,9.50
2019-04-30T00:17:06.306Z,9.50
2019-04-30T00:18:05.762Z,9.50
2019-04-30T00:19:06.122Z,9.50
2019-04-30T00:20:05.689Z,9.50
2019-04-30T00:21:09.870Z,9.40
2019-04-30T00:22:05.802Z,9.40
2019-04-30T00:23:05.770Z,9.40
2019-04-30T00:24:10.190Z,9.40
2019-04-30T00:25:05.748Z,9.40
2019-04-30T00:26:10.209Z,9.40
2019-04-30T00:27:05.735Z,9.40
2019-04-30T00:28:08.665Z,9.40
2019-04-30T00:29:05.715Z,9.40
2019-04-30T00:30:08.881Z,9.40
2019-04-30T00:31:05.727Z,9.40
2019-04-30T00:32:07.852Z,9.30
2019-04-30T00:33:05.876Z,9.30
2019-04-30T00:34:05.711Z,9.30
2019-04-30T00:35:07.149Z,9.30
2019-04-30T00:36:05.725Z,9.30
2019-04-30T00:37:07.142Z,9.30
2019-04-30T00:38:05.712Z,9.30
2019-04-30T00:39:07.056Z,9.30
2019-04-30T00:40:05.723Z,9.30
2019-04-30T00:41:06.674Z,9.20
2019-04-30T00:42:05.726Z,9.20
2019-04-30T00:43:09.377Z,9.20
2019-04-30T00:44:05.717Z,9.10
2019-04-30T00:45:09.480Z,9.10
2019-04-30T00:46:05.737Z,9.10
2019-04-30T00:47:08.197Z,9.10
2019-04-30T00:48:06.055Z,9.10
2019-04-30T00:49:09.718Z,9.10
2019-04-30T00:50:05.728Z,9.10
2019-04-30T00:51:07.344Z,9.00
2019-04-30T00:52:05.707Z,9.00
2019-04-30T00:53:12.114Z,9.00
2019-04-30T00:54:05.797Z,9.00
2019-04-30T00:55:08.989Z,8.90
2019-04-30T00:56:05.821Z,8.90
2019-04-30T00:57:07.565Z,8.90
2019-04-30T00:58:05.962Z,8.90
2019-04-30T00:59:06.919Z,8.90
2019-04-30T01:00:05.758Z,8.80
2019-04-30T01:01:08.105Z,8.80
2019-04-30T01:02:06.092Z,8.80
2019-04-30T01:03:09.909Z,8.80
2019-04-30T01:04:05.781Z,8.70
2019-04-30T01:05:08.978Z,8.70
2019-04-30T01:06:05.730Z,8.70
2019-04-30T01:07:08.557Z,8.70
2019-04-30T01:08:07.069Z,8.70
2019-04-30T01:09:08.566Z,8.60
2019-04-30T01:10:05.740Z,8.60
2019-04-30T01:11:09.308Z,8.60
2019-04-30T01:12:05.623Z,8.60
2019-04-30T01:13:07.890Z,8.60
2019-04-30T01:14:05.729Z,8.60
2019-04-30T01:15:06.369Z,8.50
2019-04-30T01:16:05.750Z,8.50
2019-04-30T01:17:08.698Z,8.50
2019-04-30T01:18:05.754Z,8.50
2019-04-30T01:19:09.379Z,8.40
2019-04-30T01:20:05.738Z,8.40
2019-04-30T01:21:07.748Z,8.40
2019-04-30T01:22:05.763Z,8.30
2019-04-30T01:23:07.888Z,8.30
2019-04-30T01:24:05.782Z,8.30
2019-04-30T01:25:08.771Z,8.30
2019-04-30T01:26:05.759Z,8.30
2019-04-30T01:27:10.398Z,8.20
2019-04-30T01:28:05.630Z,8.20
2019-04-30T01:29:05.801Z,8.20
2019-04-30T01:30:05.742Z,8.20
2019-04-30T01:31:05.765Z,8.20
2019-04-30T01:32:10.318Z,8.20
2019-04-30T01:33:05.805Z,8.10
2019-04-30T01:34:10.227Z,8.10
2019-04-30T01:35:05.769Z,8.10
2019-04-30T01:36:09.364Z,8.10
2019-04-30T01:37:05.772Z,8.10
2019-04-30T01:38:09.046Z,8.10
2019-04-30T01:39:05.641Z,8.10
2019-04-30T01:40:08.016Z,8.00
2019-04-30T01:41:05.765Z,8.00
2019-04-30T01:42:07.767Z,8.00
2019-04-30T01:43:05.796Z,8.00
2019-04-30T01:44:08.538Z,8.00
2019-04-30T01:45:05.776Z,8.00
2019-04-30T01:46:09.163Z,8.00
2019-04-30T01:47:05.803Z,7.90
2019-04-30T01:48:10.602Z,7.90
2019-04-30T01:49:05.776Z,7.90
2019-04-30T01:50:05.779Z,7.90
2019-04-30T01:51:05.784Z,7.90
2019-04-30T01:52:05.796Z,7.90
2019-04-30T01:53:09.547Z,7.80
2019-04-30T01:54:05.785Z,7.80
2019-04-30T01:55:05.777Z,7.80
2019-04-30T01:56:05.799Z,7.80
2019-04-30T01:57:05.783Z,7.80
2019-04-30T01:58:06.624Z,7.80
2019-04-30T01:59:05.798Z,7.70
2019-04-30T02:00:05.778Z,7.70
2019-04-30T02:01:05.794Z,7.70
2019-04-30T02:02:05.801Z,7.70
2019-04-30T02:03:11.171Z,7.70
2019-04-30T02:04:05.809Z,7.70
2019-04-30T02:05:05.834Z,7.60
2019-04-30T02:06:05.776Z,7.60
2019-04-30T02:07:05.781Z,7.60
2019-04-30T02:08:05.786Z,7.60
2019-04-30T02:09:05.798Z,7.50
2019-04-30T02:10:05.796Z,7.50
2019-04-30T02:11:05.803Z,7.50
2019-04-30T02:12:05.785Z,7.50
2019-04-30T02:13:05.794Z,7.40
2019-04-30T02:14:06.696Z,7.40
2019-04-30T02:15:05.803Z,7.40
2019-04-30T02:16:05.804Z,7.40
2019-04-30T02:17:05.812Z,7.40
2019-04-30T02:18:05.830Z,7.40
2019-04-30T02:19:05.786Z,7.40
2019-04-30T02:20:05.811Z,7.30
2019-04-30T02:21:05.831Z,7.30
2019-04-30T02:22:05.813Z,7.30
2019-04-30T02:23:05.795Z,7.30
2019-04-30T02:24:05.803Z,7.20
2019-04-30T02:25:05.804Z,7.20
2019-04-30T02:26:05.817Z,7.20
2019-04-30T02:27:05.854Z,7.20
2019-04-30T02:28:05.816Z,7.20
2019-04-30T02:29:05.813Z,7.10
2019-04-30T02:30:11.049Z,7.10
2019-04-30T02:31:05.836Z,7.10
2019-04-30T02:32:05.845Z,7.10
2019-04-30T02:33:05.821Z,7.10
2019-04-30T02:34:05.882Z,7.10
2019-04-30T02:35:05.840Z,7.00
2019-04-30T02:36:05.829Z,7.00
2019-04-30T02:37:05.860Z,7.00
2019-04-30T02:38:05.842Z,7.00
2019-04-30T02:39:05.837Z,7.00
2019-04-30T02:40:05.843Z,7.00
2019-04-30T02:41:05.840Z,7.00
2019-04-30T02:42:05.849Z,6.90
2019-04-30T02:43:09.547Z,6.90
2019-04-30T02:44:05.825Z,6.90
2019-04-30T02:45:05.858Z,6.90
2019-04-30T02:46:09.431Z,6.90
2019-04-30T02:47:05.863Z,6.80
2019-04-30T02:48:05.944Z,6.80
2019-04-30T02:49:05.864Z,6.80
2019-04-30T02:50:15.038Z,6.70
2019-04-30T02:51:05.840Z,6.70
2019-04-30T02:52:05.875Z,6.70
2019-04-30T02:53:05.844Z,6.70
2019-04-30T02:54:05.867Z,6.60
2019-04-30T02:55:05.833Z,6.60
2019-04-30T02:56:05.899Z,6.60
2019-04-30T02:57:05.830Z,6.50
2019-04-30T02:58:05.847Z,6.50
2019-04-30T02:59:05.852Z,6.50
2019-04-30T03:00:05.906Z,6.50
2019-04-30T03:01:05.829Z,6.50
2019-04-30T03:02:05.926Z,6.50
2019-04-30T03:03:05.888Z,6.40
2019-04-30T03:04:05.865Z,6.40
2019-04-30T03:05:05.871Z,6.40
2019-04-30T03:06:05.845Z,6.40
2019-04-30T03:07:05.866Z,6.40
2019-04-30T03:08:09.762Z,6.40
2019-04-30T03:09:05.867Z,6.30
2019-04-30T03:10:05.895Z,6.30
2019-04-30T03:11:05.845Z,6.30
2019-04-30T03:12:05.875Z,6.30
2019-04-30T03:13:05.859Z,6.20
2019-04-30T03:14:05.859Z,6.20
2019-04-30T03:15:05.858Z,6.20
2019-04-30T03:16:05.858Z,6.20
2019-04-30T03:17:05.853Z,6.20
2019-04-30T03:18:06.718Z,6.10
2019-04-30T03:19:05.853Z,6.10
2019-04-30T03:20:05.871Z,6.10
2019-04-30T03:21:05.850Z,6.10
2019-04-30T03:22:05.941Z,6.10
2019-04-30T03:23:05.853Z,6.10
2019-04-30T03:24:05.887Z,6.00
2019-04-30T03:25:05.906Z,6.00
2019-04-30T03:26:05.883Z,6.00
2019-04-30T03:27:05.880Z,6.00
2019-04-30T03:28:05.868Z,6.00
2019-04-30T03:29:05.955Z,6.00
2019-04-30T03:30:05.897Z,6.00
2019-04-30T03:31:05.893Z,6.00
2019-04-30T03:32:05.881Z,5.90
2019-04-30T03:33:05.914Z,5.90
2019-04-30T03:34:12.279Z,5.90
2019-04-30T03:35:05.887Z,5.90
2019-04-30T03:36:05.889Z,5.90
2019-04-30T03:37:05.861Z,5.90
2019-04-30T03:38:05.896Z,5.90
2019-04-30T03:39:05.868Z,5.80
2019-04-30T03:40:05.894Z,5.80
2019-04-30T03:41:05.868Z,5.80
2019-04-30T03:42:05.879Z,5.80
2019-04-30T03:43:05.880Z,5.80
2019-04-30T03:44:17.073Z,5.80
2019-04-30T03:45:05.917Z,5.70
2019-04-30T03:46:05.887Z,5.70
2019-04-30T03:47:05.884Z,5.70
2019-04-30T03:48:05.892Z,5.70
2019-04-30T03:49:05.910Z,5.60
2019-04-30T03:50:09.254Z,5.60
2019-04-30T03:51:05.904Z,5.60
2019-04-30T03:52:05.899Z,5.60
2019-04-30T03:53:05.941Z,5.50
2019-04-30T03:54:05.891Z,5.50
2019-04-30T03:55:05.915Z,5.50
2019-04-30T03:56:06.044Z,5.50
2019-04-30T03:57:05.918Z,5.40
2019-04-30T03:58:05.899Z,5.40
2019-04-30T03:59:05.890Z,5.40
2019-04-30T04:00:05.928Z,5.40
2019-04-30T04:01:05.949Z,5.40
2019-04-30T04:02:05.914Z,5.40
2019-04-30T04:03:05.910Z,5.40
2019-04-30T04:04:05.901Z,5.40
2019-04-30T04:05:05.888Z,5.30
2019-04-30T04:06:09.230Z,5.40
2019-04-30T04:07:05.912Z,5.30
2019-04-30T04:08:05.877Z,5.40
2019-04-30T04:09:05.926Z,5.40
2019-04-30T04:10:05.911Z,5.40
2019-04-30T04:11:05.901Z,5.40
2019-04-30T04:12:05.897Z,5.40
2019-04-30T04:13:05.916Z,5.40
2019-04-30T04:14:05.915Z,5.40
2019-04-30T04:15:05.945Z,5.30
2019-04-30T04:16:05.903Z,5.30
2019-04-30T04:17:05.905Z,5.30
2019-04-30T04:18:05.932Z,5.30
2019-04-30T04:19:05.940Z,5.30
2019-04-30T04:20:05.917Z,5.30
2019-04-30T04:21:11.243Z,5.30
2019-04-30T04:22:05.944Z,5.30
2019-04-30T04:23:05.940Z,5.30
2019-04-30T04:24:05.917Z,5.30
2019-04-30T04:25:05.907Z,5.30
2019-04-30T04:26:05.947Z,5.30
2019-04-30T04:27:05.917Z,5.30
2019-04-30T04:28:05.918Z,5.30
2019-04-30T04:29:05.901Z,5.30
2019-04-30T04:30:05.929Z,5.30
2019-04-30T04:31:05.939Z,5.30
2019-04-30T04:32:05.929Z,5.30
2019-04-30T04:33:05.909Z,5.30
2019-04-30T04:34:05.936Z,5.40
2019-04-30T04:35:05.950Z,5.40
2019-04-30T04:36:05.960Z,5.40
2019-04-30T04:37:05.936Z,5.40
2019-04-30T04:38:05.937Z,5.40
2019-04-30T04:39:05.937Z,5.50
2019-04-30T04:40:05.937Z,5.50
2019-04-30T04:41:05.933Z,5.60
2019-04-30T04:42:05.934Z,5.70
2019-04-30T04:43:05.931Z,5.70
2019-04-30T04:44:05.939Z,5.90
2019-04-30T04:45:05.945Z,6.00
2019-04-30T04:46:05.944Z,6.10
2019-04-30T04:47:05.949Z,6.30
2019-04-30T04:48:05.979Z,6.40
2019-04-30T04:49:05.981Z,6.60
2019-04-30T04:50:05.951Z,6.70
2019-04-30T04:51:05.930Z,6.90
2019-04-30T04:52:05.995Z,7.10
2019-04-30T04:53:07.851Z,7.30
2019-04-30T04:54:05.970Z,7.50
2019-04-30T04:55:05.973Z,7.60
2019-04-30T04:56:05.951Z,7.80
2019-04-30T04:57:14.686Z,8.00
2019-04-30T04:58:05.946Z,8.20
2019-04-30T04:59:05.962Z,8.30
2019-04-30T05:00:07.477Z,8.50
2019-04-30T05:01:05.961Z,8.60
2019-04-30T05:02:05.949Z,8.80
2019-04-30T05:03:05.971Z,8.90
2019-04-30T05:04:09.211Z,9.10
2019-04-30T05:05:05.969Z,9.20
2019-04-30T05:06:05.980Z,9.40
2019-04-30T05:07:05.967Z,9.50
2019-04-30T05:08:05.962Z,9.60
2019-04-30T05:09:05.992Z,9.70
2019-04-30T05:10:05.962Z,9.90
2019-04-30T05:11:05.959Z,10.00
2019-04-30T05:12:05.972Z,10.10
2019-04-30T05:13:05.971Z,10.20
2019-04-30T05:14:05.981Z,10.30
2019-04-30T05:15:06.040Z,10.40
2019-04-30T05:16:05.972Z,10.50
2019-04-30T05:17:05.975Z,10.60
2019-04-30T05:18:05.951Z,10.70
2019-04-30T05:19:05.956Z,10.80
2019-04-30T05:20:05.964Z,10.90
2019-04-30T05:21:05.983Z,11.00
2019-04-30T05:22:05.967Z,11.10
2019-04-30T05:23:06.035Z,11.20
2019-04-30T05:24:05.996Z,11.30
2019-04-30T05:25:05.992Z,11.40
2019-04-30T05:26:05.978Z,11.50
2019-04-30T05:27:05.965Z,11.60
2019-04-30T05:28:05.994Z,11.70
2019-04-30T05:29:05.980Z,11.80
2019-04-30T05:30:06.001Z,11.80
2019-04-30T05:31:05.985Z,12.00
2019-04-30T05:32:05.995Z,12.00
2019-04-30T05:33:05.984Z,12.10
2019-04-30T05:34:06.405Z,12.20
2019-04-30T05:35:10.457Z,12.30
2019-04-30T05:36:06.031Z,12.30
2019-04-30T05:37:05.988Z,12.40
2019-04-30T05:38:05.995Z,12.50
2019-04-30T05:39:06.007Z,12.50
2019-04-30T05:40:05.981Z,12.60
2019-04-30T05:41:05.997Z,12.60
2019-04-30T05:42:05.987Z,12.70
2019-04-30T05:43:11.223Z,12.70
2019-04-30T05:44:06.017Z,12.70
2019-04-30T05:45:06.008Z,12.80
2019-04-30T05:46:05.987Z,12.80
2019-04-30T05:47:05.973Z,12.90
2019-04-30T05:48:06.000Z,12.90
2019-04-30T05:49:06.048Z,13.00
2019-04-30T05:50:06.035Z,13.00
2019-04-30T05:51:06.027Z,13.10
2019-04-30T05:52:06.054Z,13.10
2019-04-30T05:53:06.022Z,13.10
2019-04-30T05:54:09.062Z,13.10
2019-04-30T05:55:06.008Z,13.10
2019-04-30T05:56:06.043Z,13.10
2019-04-30T05:57:06.023Z,13.10
2019-04-30T05:58:06.019Z,13.10
2019-04-30T05:59:06.020Z,13.10
2019-04-30T06:00:06.010Z,13.10
2019-04-30T06:01:06.030Z,13.10
2019-04-30T06:02:06.045Z,13.10
2019-04-30T06:03:06.030Z,13.20
2019-04-30T06:04:06.025Z,13.20
2019-04-30T06:05:06.058Z,13.20
2019-04-30T06:06:06.023Z,13.20
2019-04-30T06:07:06.028Z,13.20
2019-04-30T06:08:06.046Z,13.20
2019-04-30T06:09:08.019Z,13.20
2019-04-30T06:10:06.173Z,13.20
2019-04-30T06:11:06.036Z,13.20
2019-04-30T06:12:06.036Z,13.30
2019-04-30T06:13:05.888Z,13.30
2019-04-30T06:14:06.059Z,13.40
2019-04-30T06:15:06.046Z,13.40
2019-04-30T06:16:05.834Z,13.40
2019-04-30T06:17:06.043Z,13.50
2019-04-30T06:18:10.699Z,13.50
2019-04-30T06:19:06.022Z,13.50
2019-04-30T06:20:16.069Z,13.40
2019-04-30T06:21:05.858Z,13.40
2019-04-30T06:22:08.028Z,13.30
2019-04-30T06:23:06.042Z,13.30
2019-04-30T06:24:06.031Z,13.20
2019-04-30T06:25:06.113Z,13.10
2019-04-30T06:26:09.529Z,13.00
2019-04-30T06:27:06.073Z,13.00
2019-04-30T06:28:06.066Z,13.00
2019-04-30T06:29:06.085Z,13.10
2019-04-30T06:30:06.074Z,13.10
2019-04-30T06:31:06.054Z,13.20
2019-04-30T06:32:06.101Z,13.20
2019-04-30T06:33:06.049Z,13.20
2019-04-30T06:34:06.051Z,13.20
2019-04-30T06:35:06.056Z,13.20
2019-04-30T06:36:06.048Z,13.20
2019-04-30T06:37:06.063Z,13.20
2019-04-30T06:38:06.059Z,13.20
2019-04-30T06:39:06.069Z,13.30
2019-04-30T06:40:06.038Z,13.30
2019-04-30T06:41:06.100Z,13.30
2019-04-30T06:42:08.889Z,13.30
2019-04-30T06:43:09.625Z,13.20
2019-04-30T06:44:06.056Z,13.20
2019-04-30T06:45:06.061Z,13.20
2019-04-30T06:46:06.038Z,13.10
2019-04-30T06:47:06.114Z,13.10
2019-04-30T06:48:05.950Z,13.20
2019-04-30T06:49:06.059Z,13.10
2019-04-30T06:50:06.127Z,13.10
2019-04-30T06:51:06.051Z,13.00
2019-04-30T06:52:18.101Z,13.00
2019-04-30T06:53:06.041Z,13.00
2019-04-30T06:54:06.050Z,13.00
2019-04-30T06:55:06.081Z,12.90
2019-04-30T06:56:08.794Z,12.90
2019-04-30T06:57:06.046Z,12.90
2019-04-30T06:58:12.675Z,12.90
2019-04-30T06:59:06.055Z,12.90
2019-04-30T07:00:06.099Z,12.90
2019-04-30T07:01:06.065Z,12.80
2019-04-30T07:02:06.065Z,12.80
2019-04-30T07:03:06.078Z,12.80
2019-04-30T07:04:06.063Z,12.70
2019-04-30T07:05:06.073Z,12.70
2019-04-30T07:06:06.099Z,12.80
2019-04-30T07:07:09.864Z,12.80
2019-04-30T07:08:09.737Z,12.80
2019-04-30T07:09:06.078Z,12.80
2019-04-30T07:10:10.034Z,12.80
2019-04-30T07:11:08.412Z,12.70
2019-04-30T07:12:06.213Z,12.70
2019-04-30T07:13:06.086Z,12.60
2019-04-30T07:14:06.123Z,12.50
2019-04-30T07:15:06.062Z,12.50
2019-04-30T07:16:06.109Z,12.50
2019-04-30T07:17:06.082Z,12.50
2019-04-30T07:18:06.064Z,12.50
2019-04-30T07:19:06.090Z,12.50
2019-04-30T07:20:06.080Z,12.60
2019-04-30T07:21:06.099Z,12.60
2019-04-30T07:22:06.082Z,12.60
2019-04-30T07:23:06.107Z,12.60
2019-04-30T07:24:06.089Z,12.70
2019-04-30T07:25:06.128Z,12.70
2019-04-30T07:26:06.074Z,12.70
2019-04-30T07:27:06.087Z,12.80
2019-04-30T07:28:06.065Z,12.80
2019-04-30T07:29:06.109Z,12.80
2019-04-30T07:30:06.094Z,12.80
2019-04-30T07:31:11.215Z,12.90
2019-04-30T07:32:04.235Z,12.90
2019-04-30T07:33:06.095Z,13.00
2019-04-30T07:34:06.081Z,13.00
2019-04-30T07:35:06.131Z,13.10
2019-04-30T07:36:06.113Z,13.10
2019-04-30T07:37:13.930Z,13.10
2019-04-30T07:38:06.096Z,13.10
2019-04-30T07:39:06.091Z,13.10
2019-04-30T07:40:06.093Z,13.10
2019-04-30T07:41:06.084Z,13.20
2019-04-30T07:42:06.151Z,13.10
2019-04-30T07:43:10.005Z,13.10
2019-04-30T07:44:06.140Z,13.10
2019-04-30T07:45:06.110Z,13.10
2019-04-30T07:46:06.098Z,13.10
2019-04-30T07:47:06.096Z,13.20
2019-04-30T07:48:06.095Z,13.20
2019-04-30T07:49:06.103Z,13.20
2019-04-30T07:50:06.395Z,13.20
2019-04-30T07:51:06.323Z,13.20
2019-04-30T07:52:06.735Z,13.30
2019-04-30T07:53:06.900Z,13.30
2019-04-30T07:54:05.999Z,13.30
2019-04-30T07:55:06.156Z,13.40
2019-04-30T07:56:21.905Z,13.40
2019-04-30T07:57:06.031Z,13.40
2019-04-30T07:58:06.110Z,13.50
2019-04-30T07:59:06.108Z,13.50
2019-04-30T08:00:06.153Z,13.50
2019-04-30T08:01:06.113Z,13.50
2019-04-30T08:02:12.090Z,13.40
2019-04-30T08:03:04.809Z,13.40
2019-04-30T08:04:06.129Z,13.30
2019-04-30T08:05:06.113Z,13.30
2019-04-30T08:06:06.211Z,13.30
2019-04-30T08:07:06.028Z,13.30
2019-04-30T08:08:17.547Z,13.30
2019-04-30T08:09:06.076Z,13.30
2019-04-30T08:10:06.164Z,13.30
2019-04-30T08:11:06.164Z,13.30
2019-04-30T08:12:06.183Z,13.30
2019-04-30T08:13:09.962Z,13.40
2019-04-30T08:14:06.252Z,13.40
2019-04-30T08:15:09.738Z,13.50
2019-04-30T08:16:06.133Z,13.50
2019-04-30T08:17:06.133Z,13.50
2019-04-30T08:18:06.128Z,13.60
2019-04-30T08:19:06.134Z,13.60
2019-04-30T08:20:06.155Z,13.50
2019-04-30T08:21:06.119Z,13.60
2019-04-30T08:22:06.128Z,13.50
2019-04-30T08:23:13.985Z,13.50
2019-04-30T08:24:06.139Z,13.50
2019-04-30T08:25:06.135Z,13.50
2019-04-30T08:26:06.147Z,13.50
2019-04-30T08:27:05.969Z,13.50
2019-04-30T08:28:08.891Z,13.50
2019-04-30T08:29:06.142Z,13.40
2019-04-30T08:30:17.964Z,13.40
2019-04-30T08:31:06.135Z,13.40
2019-04-30T08:32:06.269Z,13.40
2019-04-30T08:33:05.931Z,13.40
2019-04-30T08:34:06.155Z,13.40
2019-04-30T08:35:06.154Z,13.40
2019-04-30T08:36:06.154Z,13.40
2019-04-30T08:37:13.526Z,13.40
2019-04-30T08:38:06.026Z,13.40
2019-04-30T08:39:06.165Z,13.40
2019-04-30T08:40:06.154Z,13.40
2019-04-30T08:41:06.129Z,13.50
2019-04-30T08:42:06.158Z,13.50
2019-04-30T08:43:10.793Z,13.50
2019-04-30T08:44:05.947Z,13.60
2019-04-30T08:45:06.166Z,13.70
2019-04-30T08:46:06.159Z,13.60
2019-04-30T08:47:06.157Z,13.60
2019-04-30T08:48:04.362Z,13.60
2019-04-30T08:49:06.351Z,13.60
2019-04-30T08:50:06.179Z,13.60
2019-04-30T08:51:06.173Z,13.50
2019-04-30T08:52:06.188Z,13.50
2019-04-30T08:53:06.192Z,13.50
2019-04-30T08:54:06.185Z,13.60
2019-04-30T08:55:13.880Z,13.60
2019-04-30T08:56:06.209Z,13.60
2019-04-30T08:57:06.194Z,13.60
2019-04-30T08:58:09.741Z,13.60
2019-04-30T08:59:06.198Z,13.70
2019-04-30T09:00:05.973Z,13.60
2019-04-30T09:01:06.198Z,13.70
2019-04-30T09:02:13.463Z,13.70
2019-04-30T09:03:06.217Z,13.70
2019-04-30T09:04:07.527Z,13.70
2019-04-30T09:05:06.178Z,13.70
2019-04-30T09:06:06.187Z,13.80
2019-04-30T09:07:06.212Z,13.70
2019-04-30T09:08:05.948Z,13.70
2019-04-30T09:09:06.192Z,13.70
2019-04-30T09:10:06.177Z,13.60
2019-04-30T09:11:06.182Z,13.60
2019-04-30T09:12:06.179Z,13.60
2019-04-30T09:13:06.189Z,13.70
2019-04-30T09:14:08.551Z,13.70
2019-04-30T09:15:06.203Z,13.70
2019-04-30T09:16:06.200Z,13.70
2019-04-30T09:17:06.190Z,13.70
2019-04-30T09:18:10.155Z,13.70
2019-04-30T09:19:06.188Z,13.70
2019-04-30T09:20:06.236Z,13.70
2019-04-30T09:21:06.588Z,13.70
2019-04-30T09:22:13.013Z,13.60
2019-04-30T09:23:06.192Z,13.60
2019-04-30T09:24:06.209Z,13.70
2019-04-30T09:25:06.185Z,13.70
2019-04-30T09:26:06.182Z,13.70
2019-04-30T09:27:06.199Z,13.70
2019-04-30T09:28:06.192Z,13.70
2019-04-30T09:29:06.208Z,13.70
2019-04-30T09:30:06.215Z,13.70
2019-04-30T09:31:06.231Z,13.70
2019-04-30T09:32:06.188Z,13.80
2019-04-30T09:33:06.294Z,13.80
2019-04-30T09:34:15.017Z,13.90
2019-04-30T09:35:06.216Z,13.90
2019-04-30T09:36:06.230Z,13.90
2019-04-30T09:37:06.195Z,13.90
2019-04-30T09:38:06.231Z,13.90
2019-04-30T09:39:06.238Z,13.90
2019-04-30T09:40:15.144Z,13.90
2019-04-30T09:41:06.235Z,13.90
2019-04-30T09:42:06.213Z,14.00
2019-04-30T09:43:10.025Z,14.00
2019-04-30T09:44:06.025Z,14.00
2019-04-30T09:45:08.812Z,14.00
2019-04-30T09:46:16.169Z,14.00
2019-04-30T09:47:06.210Z,14.00
2019-04-30T09:48:06.060Z,14.00
2019-04-30T09:49:06.229Z,14.00
2019-04-30T09:50:06.233Z,14.10
2019-04-30T09:51:06.565Z,14.10
2019-04-30T09:52:06.256Z,14.10
2019-04-30T09:53:06.232Z,14.20
2019-04-30T09:54:06.531Z,14.20
2019-04-30T09:55:04.246Z,14.20
2019-04-30T09:56:06.235Z,14.30
2019-04-30T09:57:06.226Z,14.30
2019-04-30T09:58:14.809Z,14.30
2019-04-30T09:59:06.225Z,14.40
2019-04-30T10:00:06.260Z,14.40
2019-04-30T10:01:09.201Z,14.40
2019-04-30T10:02:08.999Z,14.50
2019-04-30T10:03:06.397Z,14.50
2019-04-30T10:04:06.538Z,14.50
2019-04-30T10:05:04.470Z,14.50
2019-04-30T10:06:06.288Z,14.50
2019-04-30T10:07:06.241Z,14.50
2019-04-30T10:08:06.265Z,14.50
2019-04-30T10:09:06.258Z,14.50
2019-04-30T10:10:08.754Z,14.60
2019-04-30T10:11:06.232Z,14.60
2019-04-30T10:12:06.253Z,14.60
2019-04-30T10:13:06.253Z,14.70
2019-04-30T10:14:06.257Z,14.70
2019-04-30T10:15:06.254Z,14.70
2019-04-30T10:16:06.230Z,14.70
2019-04-30T10:17:06.309Z,14.70
2019-04-30T10:18:06.253Z,14.70
2019-04-30T10:19:06.240Z,14.70
2019-04-30T10:20:06.286Z,14.70
2019-04-30T10:21:06.246Z,14.70
2019-04-30T10:22:06.260Z,14.80
2019-04-30T10:23:04.501Z,14.80
2019-04-30T10:24:12.951Z,14.80
2019-04-30T10:25:04.361Z,14.90
2019-04-30T10:26:06.243Z,14.90
2019-04-30T10:27:07.755Z,14.90
2019-04-30T10:28:06.305Z,15.00
2019-04-30T10:29:06.289Z,15.00
2019-04-30T10:30:06.271Z,15.00
2019-04-30T10:31:06.267Z,15.00
2019-04-30T10:32:06.280Z,15.00
2019-04-30T10:33:09.708Z,15.00
2019-04-30T10:34:06.325Z,15.00
2019-04-30T10:35:06.261Z,15.00
2019-04-30T10:36:06.193Z,15.00
2019-04-30T10:37:06.271Z,14.90
2019-04-30T10:38:04.148Z,14.90
2019-04-30T10:39:06.316Z,14.90
2019-04-30T10:40:06.320Z,15.00
2019-04-30T10:41:06.282Z,15.00
2019-04-30T10:42:04.445Z,15.00
2019-04-30T10:43:10.127Z,15.00
2019-04-30T10:44:06.318Z,15.00
2019-04-30T10:45:04.424Z,15.00
2019-04-30T10:46:06.298Z,15.00
2019-04-30T10:47:06.293Z,15.00
2019-04-30T10:48:06.304Z,15.00
2019-04-30T10:49:09.013Z,15.00
2019-04-30T10:50:04.319Z,15.00
2019-04-30T10:51:06.585Z,15.00
2019-04-30T10:52:06.302Z,15.10
2019-04-30T10:53:06.175Z,15.10
2019-04-30T10:54:04.373Z,15.10
2019-04-30T10:55:04.687Z,15.10
2019-04-30T10:56:04.365Z,15.20
2019-04-30T10:57:06.444Z,15.20
2019-04-30T10:58:06.437Z,15.20
2019-04-30T10:59:04.459Z,15.20
2019-04-30T11:00:04.295Z,15.20
2019-04-30T11:01:04.478Z,15.20
2019-04-30T11:02:06.484Z,15.20
2019-04-30T11:03:16.122Z,15.20
2019-04-30T11:04:04.349Z,15.20
2019-04-30T11:05:07.628Z,15.20
2019-04-30T11:06:08.540Z,15.20
2019-04-30T11:07:06.265Z,15.20
2019-04-30T11:08:06.243Z,15.20
2019-04-30T11:09:04.339Z,15.20
2019-04-30T11:10:09.916Z,15.20
2019-04-30T11:11:06.396Z,15.20
2019-04-30T11:12:04.169Z,15.20
2019-04-30T11:13:06.414Z,15.10
2019-04-30T11:14:04.291Z,15.10
2019-04-30T11:15:06.474Z,15.00
2019-04-30T11:16:12.359Z,15.00
2019-04-30T11:17:06.753Z,14.90
2019-04-30T11:18:06.623Z,14.90
2019-04-30T11:19:06.672Z,14.90
2019-04-30T11:20:06.592Z,14.90
2019-04-30T11:21:06.910Z,15.00
2019-04-30T11:22:06.872Z,15.00
2019-04-30T11:23:14.059Z,15.00
2019-04-30T11:24:06.698Z,15.00
2019-04-30T11:25:06.350Z,15.00
2019-04-30T11:26:04.525Z,15.00
2019-04-30T11:27:06.233Z,15.00
2019-04-30T11:28:06.886Z,15.00
2019-04-30T11:29:06.718Z,15.00
2019-04-30T11:30:04.796Z,15.00
2019-04-30T11:31:04.757Z,15.00
2019-04-30T11:32:04.719Z,15.00
2019-04-30T11:33:04.659Z,15.00
2019-04-30T11:34:04.372Z,15.00
2019-04-30T11:35:04.541Z,15.10
2019-04-30T11:36:06.107Z,15.10
2019-04-30T11:37:06.497Z,15.10
2019-04-30T11:38:04.567Z,15.10
2019-04-30T11:39:06.394Z,15.20
2019-04-30T11:40:06.509Z,15.20
2019-04-30T11:41:06.272Z,15.20
2019-04-30T11:42:06.445Z,15.30
2019-04-30T11:43:06.071Z,15.30
2019-04-30T11:44:04.388Z,15.30
2019-04-30T11:45:08.453Z,15.40
2019-04-30T11:46:06.213Z,15.40
2019-04-30T11:47:06.065Z,15.40
2019-04-30T11:48:04.456Z,15.40
2019-04-30T11:49:04.546Z,15.50
2019-04-30T11:50:07.303Z,15.50
2019-04-30T11:51:06.514Z,15.50
2019-04-30T11:52:04.532Z,15.50
2019-04-30T11:53:14.107Z,15.40
2019-04-30T11:54:04.482Z,15.40
2019-04-30T11:55:06.322Z,15.50
2019-04-30T11:56:04.559Z,15.50
2019-04-30T11:57:09.435Z,15.40
2019-04-30T11:58:04.372Z,15.40
2019-04-30T11:59:04.177Z,15.40
2019-04-30T12:00:08.501Z,15.40
2019-04-30T12:01:06.248Z,15.40
2019-04-30T12:02:04.624Z,15.40
2019-04-30T12:03:06.300Z,15.40
2019-04-30T12:04:06.274Z,15.40
2019-04-30T12:05:06.820Z,15.30
2019-04-30T12:06:06.438Z,15.30
2019-04-30T12:07:06.510Z,15.30
2019-04-30T12:08:06.238Z,15.30
2019-04-30T12:09:06.846Z,15.20
2019-04-30T12:10:04.419Z,15.20
2019-04-30T12:11:04.434Z,15.10
2019-04-30T12:12:06.575Z,15.10
2019-04-30T12:13:04.561Z,15.10
2019-04-30T12:14:06.663Z,15.10
2019-04-30T12:15:06.438Z,15.10
2019-04-30T12:16:04.600Z,15.10
2019-04-30T12:17:10.449Z,15.10
2019-04-30T12:18:06.894Z,15.10
2019-04-30T12:19:10.060Z,15.10
2019-04-30T12:20:08.419Z,15.10
2019-04-30T12:21:06.801Z,15.10
2019-04-30T12:22:04.602Z,15.10
2019-04-30T12:23:06.625Z,15.10
2019-04-30T12:24:06.562Z,15.20
2019-04-30T12:25:06.283Z,15.20
2019-04-30T12:26:06.220Z,15.20
2019-04-30T12:27:04.291Z,15.20
2019-04-30T12:28:06.325Z,15.20
2019-04-30T12:29:06.348Z,15.20
2019-04-30T12:30:04.266Z,15.30
2019-04-30T12:31:06.207Z,15.30
2019-04-30T12:32:06.338Z,15.30
2019-04-30T12:33:06.341Z,15.30
2019-04-30T12:34:06.332Z,15.40
2019-04-30T12:35:06.358Z,15.40
2019-04-30T12:36:06.537Z,15.40
2019-04-30T12:37:04.282Z,15.40
2019-04-30T12:38:04.258Z,15.50
2019-04-30T12:39:06.344Z,15.50
2019-04-30T12:40:06.335Z,15.50
2019-04-30T12:41:06.349Z,15.50
2019-04-30T12:42:06.325Z,15.60
2019-04-30T12:43:10.002Z,15.60
2019-04-30T12:44:04.527Z,15.60
2019-04-30T12:45:06.349Z,15.70
2019-04-30T12:46:06.322Z,15.70
2019-04-30T12:47:06.388Z,15.70
2019-04-30T12:48:06.382Z,15.70
2019-04-30T12:49:04.450Z,15.70
2019-04-30T12:50:06.350Z,15.70
2019-04-30T12:51:06.367Z,15.70
2019-04-30T12:52:06.359Z,15.70
2019-04-30T12:53:04.190Z,15.80
2019-04-30T12:54:08.391Z,15.80
2019-04-30T12:55:15.121Z,15.80
2019-04-30T12:56:04.179Z,15.80
2019-04-30T12:57:06.392Z,15.80
2019-04-30T12:58:06.394Z,15.80
2019-04-30T12:59:06.375Z,15.80
2019-04-30T13:00:06.395Z,15.80
2019-04-30T13:01:06.387Z,15.80
2019-04-30T13:02:06.370Z,15.80